createdAt,value
2019-02-18T00:03:06.768Z,18.67
2019-02-18T00:14:42.909Z,17.90
2019-02-18T00:23:22.954Z,17.65
2019-02-18T00:29:15.978Z,19.73
2019-02-18T00:31:56.935Z,18.90
2019-02-18T00:34:38.025Z,19.37
2019-02-18T00:37:24.455Z,16.12
2019-02-18T00:40:01.456Z,16.75
2019-02-18T00:42:42.109Z,16.95
2019-02-18T00:48:22.092Z,17.17
2019-02-18T00:54:02.334Z,15.40
2019-02-18T00:56:43.084Z,17.77
2019-02-18T01:11:18.176Z,17.82
2019-02-18T01:34:55.358Z,18.27
2019-02-18T01:52:35.055Z,17.67
2019-02-18T02:07:15.591Z,16.75
2019-02-18T02:09:56.267Z,19.02
2019-02-18T02:18:37.434Z,16.70
2019-02-18T02:24:17.421Z,17.67
2019-02-18T02:32:59.996Z,17.37
2019-02-18T02:35:40.651Z,17.35
2019-02-18T02:38:21.425Z,17.30
2019-02-18T02:41:02.086Z,18.48
2019-02-18T02:43:42.657Z,16.45
2019-02-18T02:46:23.412Z,16.95
2019-02-18T02:49:04.084Z,15.83
2019-02-18T02:51:44.442Z,18.15
2019-02-18T02:54:25.087Z,15.65
2019-02-18T02:57:05.533Z,16.35
2019-02-18T02:59:45.930Z,15.55
2019-02-18T03:02:26.754Z,17.23
2019-02-18T03:05:07.483Z,17.15
2019-02-18T03:07:47.972Z,18.23
2019-02-18T03:10:28.955Z,18.15
2019-02-18T03:13:10.068Z,18.60
2019-02-18T03:15:50.531Z,17.60
2019-02-18T03:18:30.909Z,19.95
2019-02-18T03:21:11.730Z,19.10
2019-02-18T03:23:52.180Z,20.15
2019-02-18T03:26:32.535Z,18.02
2019-02-18T03:29:13.595Z,18.92
2019-02-18T03:31:54.926Z,19.25
2019-02-18T03:34:35.842Z,19.82
2019-02-18T03:37:16.171Z,17.67
2019-02-18T03:39:56.831Z,18.48
2019-02-18T03:42:37.394Z,19.52
2019-02-18T03:57:35.830Z,18.70
2019-02-18T04:06:19.455Z,18.35
2019-02-18T04:21:13.600Z,21.97
2019-02-18T04:27:07.075Z,21.07
2019-02-18T04:33:00.729Z,21.17
2019-02-18T04:35:41.077Z,19.05
2019-02-18T04:41:20.658Z,18.40
2019-02-18T04:50:05.478Z,18.95
2019-02-18T05:08:05.831Z,17.52
2019-02-18T05:35:00.144Z,17.70
2019-02-18T06:10:48.780Z,18.95
2019-02-18T06:47:06.513Z,19.70
2019-02-18T06:49:47.079Z,19.50
2019-02-18T06:52:28.590Z,18.30
2019-02-18T07:10:26.583Z,19.20
2019-02-18T07:16:20.499Z,18.32
2019-02-18T07:25:11.602Z,16.62
2019-02-18T07:27:52.244Z,18.48
2019-02-18T07:30:33.291Z,20.05
2019-02-18T07:36:27.139Z,22.58
2019-02-18T07:39:07.807Z,19.10
2019-02-18T07:41:48.748Z,21.15
2019-02-18T07:47:42.864Z,22.20
2019-02-18T07:50:23.555Z,20.50
2019-02-18T08:01:59.719Z,22.27
2019-02-18T08:04:40.489Z,20.75
2019-02-18T08:10:20.166Z,21.27
2019-02-18T08:13:01.031Z,16.93
2019-02-18T08:18:54.439Z,19.23
2019-02-18T08:21:34.982Z,18.52
2019-02-18T08:33:10.811Z,20.25
2019-02-18T08:39:05.535Z,18.98
2019-02-18T08:44:59.331Z,19.65
2019-02-18T08:47:40.376Z,18.77
2019-02-18T08:50:20.744Z,21.27
2019-02-18T08:56:13.763Z,19.20
2019-02-18T08:58:54.164Z,20.17
2019-02-18T09:01:34.780Z,21.48
2019-02-18T09:04:15.386Z,19.67
2019-02-18T09:10:09.215Z,20.37
2019-02-18T09:12:49.962Z,19.85
2019-02-18T09:15:30.722Z,21.17
2019-02-18T09:21:26.221Z,19.40
2019-02-18T09:27:19.999Z,19.25
2019-02-18T09:30:00.556Z,18.30
2019-02-18T09:32:41.335Z,21.30
2019-02-18T09:35:22.010Z,16.60
2019-02-18T09:38:02.701Z,16.35
2019-02-18T09:40:46.154Z,19.30
2019-02-18T09:43:25.443Z,17.90
2019-02-18T09:46:06.142Z,16.70
2019-02-18T09:51:44.787Z,15.60
2019-02-18T09:57:24.053Z,15.53
2019-02-18T10:03:02.954Z,15.53
2019-02-18T10:05:43.916Z,15.33
2019-02-18T10:17:38.679Z,15.90
2019-02-18T10:53:26.036Z,11.27
2019-02-18T11:17:01.891Z,11.80
2019-02-18T11:25:39.435Z,11.90
2019-02-18T11:37:32.654Z,9.67
2019-02-18T11:55:24.868Z,9.97
2019-02-18T12:13:07.084Z,9.60
2019-02-18T12:15:47.465Z,10.20
2019-02-18T12:18:28.492Z,7.93
2019-02-18T12:21:09.760Z,8.50
2019-02-18T12:23:38.533Z,8.00
2019-02-18T12:26:26.059Z,6.90
2019-02-18T12:29:13.602Z,8.63
2019-02-18T12:32:01.152Z,7.30
2019-02-18T12:34:48.949Z,6.97
2019-02-18T12:37:37.295Z,7.17
2019-02-18T12:40:24.840Z,6.60
2019-02-18T12:43:12.844Z,7.10
2019-02-18T12:46:00.684Z,7.27
2019-02-18T12:48:41.404Z,7.47
2019-02-18T12:54:21.155Z,8.53
2019-02-18T13:27:03.028Z,8.10
2019-02-18T13:29:43.651Z,9.23
2019-02-18T13:32:24.915Z,7.60
2019-02-18T13:35:05.577Z,8.03
2019-02-18T13:37:45.990Z,7.00
2019-02-18T13:40:27.063Z,6.63
2019-02-18T13:43:08.541Z,5.97
2019-02-18T13:45:49.618Z,7.40
2019-02-18T13:54:44.671Z,7.33
2019-02-18T14:12:23.107Z,6.87
2019-02-18T14:21:00.940Z,6.60
2019-02-18T14:23:41.608Z,6.73
2019-02-18T14:29:35.351Z,5.37
2019-02-18T14:44:00.927Z,5.73
2019-02-18T14:46:41.284Z,6.73
2019-02-18T15:13:32.774Z,6.77
2019-02-18T15:19:26.771Z,6.43
2019-02-18T15:22:07.740Z,6.27
2019-02-18T15:24:48.059Z,9.10
2019-02-18T15:30:42.009Z,7.33
2019-02-18T15:36:35.867Z,6.27
2019-02-18T16:00:23.555Z,8.90
2019-02-18T16:03:04.810Z,7.63
2019-02-18T16:05:45.946Z,6.90
2019-02-18T16:11:25.598Z,6.53
2019-02-18T16:14:06.603Z,7.80
2019-02-18T16:16:48.267Z,8.07
2019-02-18T16:19:29.015Z,6.83
2019-02-18T16:22:11.201Z,8.40
2019-02-18T16:24:52.810Z,7.30
2019-02-18T16:27:33.907Z,7.77
2019-02-18T16:30:14.977Z,9.30
2019-02-18T16:32:55.720Z,11.20
2019-02-18T16:38:49.300Z,8.50
2019-02-18T16:41:30.182Z,22.03
2019-02-18T16:44:11.535Z,8.00
2019-02-18T16:46:52.151Z,9.17
2019-02-18T16:49:33.126Z,13.47
2019-02-18T16:52:13.959Z,15.10
2019-02-18T16:54:53.358Z,12.27
2019-02-18T16:57:41.211Z,8.50
2019-02-18T17:03:31.390Z,20.17
2019-02-18T17:06:19.447Z,11.07
2019-02-18T17:09:06.978Z,31.60
2019-02-18T17:11:56.251Z,9.73
2019-02-18T17:14:44.265Z,10.10
2019-02-18T17:17:31.838Z,9.00
2019-02-18T17:20:20.170Z,8.43
2019-02-18T17:23:07.796Z,8.80
2019-02-18T17:25:55.323Z,9.07
2019-02-18T17:28:43.317Z,7.80
2019-02-18T17:31:32.586Z,8.07
2019-02-18T17:34:20.101Z,14.57
2019-02-18T17:37:07.631Z,9.20
2019-02-18T17:39:55.292Z,10.10
2019-02-18T17:42:36.663Z,10.20
2019-02-18T17:51:28.417Z,8.60
2019-02-18T18:03:13.757Z,10.50
2019-02-18T18:14:49.552Z,7.70
2019-02-18T18:20:31.715Z,7.83
2019-02-18T18:26:24.883Z,8.00
2019-02-18T18:29:06.109Z,8.60
2019-02-18T18:43:43.907Z,8.27
2019-02-18T18:55:25.720Z,9.80
2019-02-18T19:01:05.716Z,8.97
2019-02-18T19:03:46.538Z,9.37
2019-02-18T19:09:39.902Z,9.40
2019-02-18T19:12:20.499Z,9.90
2019-02-18T19:15:01.335Z,9.97
2019-02-18T19:17:42.117Z,8.53
2019-02-18T19:20:22.714Z,9.97
2019-02-18T19:23:03.282Z,9.27
2019-02-18T19:25:43.667Z,11.40
2019-02-18T19:28:25.488Z,11.83
2019-02-18T19:31:06.669Z,10.30
2019-02-18T19:33:47.911Z,12.50
2019-02-18T19:36:28.819Z,10.90
2019-02-18T19:39:09.826Z,9.93
2019-02-18T19:41:50.718Z,10.97
2019-02-18T19:44:31.648Z,11.40
2019-02-18T19:47:12.559Z,11.10
2019-02-18T19:49:53.746Z,10.47
2019-02-18T19:52:34.359Z,11.60
2019-02-18T19:55:14.752Z,10.50
2019-02-18T19:57:55.384Z,11.57
2019-02-18T20:00:36.273Z,11.00
2019-02-18T20:03:16.867Z,12.37
2019-02-18T20:05:57.367Z,12.13
2019-02-18T20:08:38.115Z,10.40
2019-02-18T20:11:19.091Z,11.57
2019-02-18T20:13:59.744Z,14.60
2019-02-18T20:16:40.098Z,7.97
2019-02-18T20:19:20.700Z,6.43
2019-02-18T20:22:01.619Z,8.53
2019-02-18T20:24:42.010Z,7.87
2019-02-18T20:27:22.675Z,8.70
2019-02-18T20:30:03.530Z,8.27
2019-02-18T20:32:43.995Z,8.00
2019-02-18T20:35:24.587Z,7.23
2019-02-18T20:38:05.132Z,6.80
2019-02-18T20:40:46.335Z,8.03
2019-02-18T20:43:26.840Z,7.30
2019-02-18T20:46:07.561Z,9.10
2019-02-18T20:48:48.441Z,10.90
2019-02-18T20:51:28.873Z,9.20
2019-02-18T20:54:09.996Z,11.67
2019-02-18T21:00:05.463Z,7.30
2019-02-18T21:02:46.022Z,8.93
2019-02-18T21:05:26.720Z,9.63
2019-02-18T21:08:06.383Z,7.03
2019-02-18T21:10:54.755Z,9.60
2019-02-18T21:13:43.000Z,7.63
2019-02-18T21:16:30.590Z,6.80
2019-02-18T21:19:18.920Z,8.23
2019-02-18T21:22:07.223Z,7.73
2019-02-18T21:24:55.227Z,8.30
2019-02-18T21:27:44.938Z,7.53
2019-02-18T21:30:32.935Z,9.03
2019-02-18T21:33:14.204Z,7.23
2019-02-18T21:35:55.462Z,7.70
2019-02-18T21:38:36.486Z,6.67
2019-02-18T21:41:17.150Z,5.90
2019-02-18T21:43:58.112Z,7.00
2019-02-18T21:46:39.243Z,7.50
2019-02-18T21:49:19.999Z,7.50
2019-02-18T21:52:00.724Z,7.63
2019-02-18T21:54:41.634Z,5.60
2019-02-18T21:57:23.115Z,6.10
2019-02-18T22:00:05.766Z,6.63
2019-02-18T22:05:49.985Z,4.50
2019-02-18T22:08:30.687Z,5.37
2019-02-18T22:11:11.830Z,5.40
2019-02-18T22:13:52.635Z,5.60
2019-02-18T22:19:45.962Z,4.00
2019-02-18T22:22:27.290Z,4.60
2019-02-18T22:25:07.847Z,5.60
2019-02-18T22:27:48.994Z,5.20
2019-02-18T22:30:29.988Z,4.47
2019-02-18T22:33:11.303Z,4.90
2019-02-18T22:35:52.398Z,4.73
2019-02-18T22:38:32.959Z,4.33
2019-02-18T22:41:14.631Z,4.80
2019-02-18T22:43:54.884Z,5.23
2019-02-18T22:49:34.656Z,5.47
2019-02-18T23:07:23.980Z,6.33
2019-02-18T23:10:04.679Z,4.40
2019-02-18T23:24:43.348Z,7.00
2019-02-18T23:27:24.466Z,8.30
2019-02-18T23:33:18.259Z,6.80
2019-02-18T23:35:58.624Z,8.13
2019-02-18T23:38:39.716Z,6.90
2019-02-18T23:41:20.999Z,5.93
2019-02-18T23:44:02.128Z,6.40
2019-02-18T23:46:42.639Z,6.33
2019-02-18T23:49:23.443Z,7.07
2019-02-18T23:52:04.118Z,7.00
2019-02-18T23:54:44.808Z,6.63
2019-02-18T23:57:25.902Z,7.37
